Time;durP1;ratioP1;P1;durP2;ratioP2;P2;SDS_P1;SDS_P2;PMS_P1;PMS_P2;Temp;Humidity;BMP_temperature;BMP_pressure;BME280_temperature;BME280_humidity;BME280_pressure;Samples;Min_cycle;Max_cycle;Signal;HPM_P1;HPM_P2
2021/10/16 00:01:49;;;;;;;9.40;6.20;;;10.30;99.90;;;;;;5023800;28;20495;-84
2021/10/16 00:04:16;;;;;;;9.80;6.20;;;10.30;99.90;;;;;;5023181;28;20465;-84
2021/10/16 00:06:43;;;;;;;7.47;5.20;;;10.30;99.90;;;;;;5026482;28;20453;-84
2021/10/16 00:09:10;;;;;;;9.07;6.00;;;10.40;99.90;;;;;;5032297;28;20492;-84
2021/10/16 00:11:37;;;;;;;9.93;6.20;;;10.40;99.90;;;;;;5023796;28;20456;-84
2021/10/16 00:14:05;;;;;;;9.60;6.80;;;10.40;99.90;;;;;;5020181;28;20457;-84
2021/10/16 00:16:32;;;;;;;9.10;5.77;;;10.40;99.90;;;;;;5017555;28;20624;-85
2021/10/16 00:19:00;;;;;;;9.13;5.30;;;10.40;99.90;;;;;;5017768;28;20457;-84
2021/10/16 00:21:27;;;;;;;7.90;5.70;;;10.40;99.90;;;;;;5019620;28;20454;-84
2021/10/16 00:23:54;;;;;;;8.30;5.00;;;10.50;99.90;;;;;;5024344;28;20492;-84
2021/10/16 00:26:21;;;;;;;8.00;5.57;;;10.40;99.90;;;;;;5028746;28;20472;-84
2021/10/16 00:28:47;;;;;;;8.17;5.87;;;10.30;99.90;;;;;;5022647;28;20445;-84
2021/10/16 00:31:14;;;;;;;9.03;5.83;;;10.30;99.90;;;;;;5020526;28;20569;-85
2021/10/16 00:33:41;;;;;;;8.60;5.80;;;10.40;99.90;;;;;;5020934;28;20481;-85
2021/10/16 00:36:09;;;;;;;11.37;5.63;;;10.30;99.90;;;;;;5021515;28;20508;-85
2021/10/16 00:38:36;;;;;;;7.90;5.80;;;10.20;99.90;;;;;;5021857;28;20453;-85
2021/10/16 00:41:03;;;;;;;9.47;7.50;;;10.20;99.90;;;;;;5021373;28;20863;-85
2021/10/16 00:43:31;;;;;;;9.40;6.40;;;10.20;99.90;;;;;;5020748;28;20556;-85
2021/10/16 00:45:58;;;;;;;10.30;6.50;;;10.10;99.90;;;;;;5020126;28;20439;-84
2021/10/16 00:48:25;;;;;;;9.47;6.40;;;10.10;99.90;;;;;;5021268;28;20839;-84
2021/10/16 00:50:53;;;;;;;9.00;6.70;;;10.10;99.90;;;;;;5020578;28;20531;-84
2021/10/16 00:53:21;;;;;;;9.60;5.80;;;10.10;99.90;;;;;;5020216;28;20556;-85
2021/10/16 00:55:50;;;;;;;9.83;7.00;;;10.10;99.90;;;;;;5020776;28;20458;-84
2021/10/16 00:58:17;;;;;;;9.20;6.80;;;10.00;99.90;;;;;;5021508;28;20467;-84
2021/10/16 01:00:44;;;;;;;11.80;6.50;;;10.00;99.90;;;;;;5020206;28;20454;-84
2021/10/16 01:03:11;;;;;;;11.80;7.20;;;10.00;99.90;;;;;;5017305;28;20800;-84
2021/10/16 01:05:38;;;;;;;10.97;7.10;;;10.00;99.90;;;;;;5017293;28;20458;-84
2021/10/16 01:08:09;;;;;;;9.87;6.60;;;10.00;99.90;;;;;;5017208;28;20478;-84
2021/10/16 01:10:37;;;;;;;12.57;7.20;;;10.00;99.90;;;;;;5017749;28;20484;-84
2021/10/16 01:13:04;;;;;;;9.03;6.30;;;10.00;99.90;;;;;;5017264;28;20860;-84
2021/10/16 01:15:32;;;;;;;10.07;6.87;;;10.10;99.90;;;;;;5015694;28;20461;-84
2021/10/16 01:18:00;;;;;;;8.60;5.67;;;10.10;99.90;;;;;;5015203;28;20461;-84
2021/10/16 01:20:28;;;;;;;8.73;5.93;;;10.20;99.90;;;;;;5015618;28;20952;-84
2021/10/16 01:22:58;;;;;;;9.43;7.20;;;10.20;99.90;;;;;;5016105;28;20488;-84
2021/10/16 01:25:25;;;;;;;10.40;7.53;;;10.20;99.90;;;;;;5016659;28;20440;-84
2021/10/16 01:27:53;;;;;;;8.60;6.40;;;10.20;99.90;;;;;;5016881;28;20457;-84
2021/10/16 01:30:21;;;;;;;10.23;7.10;;;10.20;99.90;;;;;;5019839;28;20556;-84
2021/10/16 01:32:49;;;;;;;11.60;6.17;;;10.20;99.90;;;;;;5018850;28;20455;-84
2021/10/16 01:35:16;;;;;;;8.87;6.43;;;10.20;99.90;;;;;;5023957;28;20773;-84
2021/10/16 01:37:44;;;;;;;9.40;6.27;;;10.30;99.90;;;;;;5024955;28;20445;-84
2021/10/16 01:40:15;;;;;;;9.80;6.50;;;10.50;99.90;;;;;;5023988;28;20533;-84
2021/10/16 01:42:43;;;;;;;10.93;7.00;;;10.50;99.90;;;;;;5029323;28;20548;-84
2021/10/16 01:45:12;;;;;;;9.70;6.20;;;10.40;99.90;;;;;;5020165;28;20521;-84
2021/10/16 01:47:53;;;;;;;9.60;6.47;;;10.50;99.90;;;;;;5030112;28;20428;-84
2021/10/16 01:50:20;;;;;;;9.83;6.53;;;10.60;99.90;;;;;;5031027;28;20547;-84
2021/10/16 01:52:47;;;;;;;12.33;6.93;;;10.60;99.90;;;;;;5031070;28;20638;-84
2021/10/16 01:55:16;;;;;;;9.10;6.50;;;10.60;99.90;;;;;;5032848;28;20469;-84
2021/10/16 01:57:44;;;;;;;11.00;6.80;;;10.60;99.90;;;;;;5032017;28;20523;-84
2021/10/16 02:00:12;;;;;;;8.43;6.03;;;10.50;99.90;;;;;;5026759;28;20449;-85
2021/10/16 02:02:39;;;;;;;9.67;6.90;;;10.50;99.90;;;;;;5022890;28;20838;-84
2021/10/16 02:05:07;;;;;;;9.77;7.00;;;10.50;99.90;;;;;;5035350;28;20544;-84
2021/10/16 02:07:34;;;;;;;9.50;6.13;;;10.50;99.90;;;;;;5035029;28;20424;-84
2021/10/16 02:10:01;;;;;;;10.90;7.80;;;10.60;99.90;;;;;;5034928;28;20473;-84
2021/10/16 02:12:29;;;;;;;12.03;7.33;;;10.60;99.90;;;;;;5035215;28;20444;-84
2021/10/16 02:14:56;;;;;;;10.57;7.23;;;10.50;99.90;;;;;;5033857;28;20489;-84
2021/10/16 02:17:23;;;;;;;9.53;7.00;;;10.40;99.90;;;;;;5027657;28;20514;-84
2021/10/16 02:19:49;;;;;;;10.47;8.00;;;10.40;99.90;;;;;;5021014;28;20479;-84
2021/10/16 02:22:16;;;;;;;12.57;7.83;;;10.40;99.90;;;;;;5021001;28;21018;-84
2021/10/16 02:24:43;;;;;;;11.27;7.50;;;10.50;99.90;;;;;;5031573;28;20473;-84
2021/10/16 02:27:10;;;;;;;10.93;7.70;;;10.50;99.90;;;;;;5033559;28;20543;-84
2021/10/16 02:29:38;;;;;;;11.10;8.60;;;10.60;99.90;;;;;;5017683;28;20477;-84
2021/10/16 02:32:05;;;;;;;10.60;7.83;;;10.70;99.90;;;;;;5016078;28;20480;-84
2021/10/16 02:34:32;;;;;;;11.17;7.53;;;10.60;99.90;;;;;;5018664;28;20857;-84
2021/10/16 02:36:59;;;;;;;11.53;7.60;;;10.60;99.90;;;;;;5019366;28;20541;-84
2021/10/16 02:39:26;;;;;;;14.70;7.57;;;10.70;99.90;;;;;;5017708;28;20457;-84
2021/10/16 02:41:55;;;;;;;14.43;9.60;;;10.70;99.90;;;;;;5018798;28;20477;-84
2021/10/16 02:44:22;;;;;;;12.87;8.70;;;10.80;99.90;;;;;;5018530;28;20486;-85
2021/10/16 02:46:50;;;;;;;10.20;7.47;;;10.80;99.90;;;;;;5018261;28;20525;-84
2021/10/16 02:49:17;;;;;;;9.80;7.60;;;10.80;99.90;;;;;;5018763;28;20559;-84
2021/10/16 02:51:46;;;;;;;10.27;7.10;;;10.90;99.90;;;;;;5016736;28;20793;-84
2021/10/16 02:54:13;;;;;;;11.97;8.73;;;10.90;99.90;;;;;;5018208;28;20888;-84
2021/10/16 02:56:40;;;;;;;9.50;7.57;;;10.80;99.90;;;;;;5026599;28;20468;-84
2021/10/16 02:59:07;;;;;;;13.70;7.73;;;10.90;99.90;;;;;;5027282;28;20446;-84
2021/10/16 03:01:34;;;;;;;12.03;7.60;;;10.90;99.90;;;;;;5021157;28;20428;-84
2021/10/16 03:04:02;;;;;;;11.80;7.20;;;10.90;99.90;;;;;;5019526;28;20473;-84
2021/10/16 03:06:29;;;;;;;10.90;7.53;;;11.00;99.90;;;;;;5020490;28;20898;-83
2021/10/16 03:08:56;;;;;;;10.43;7.40;;;11.20;99.90;;;;;;5021219;28;20588;-83
2021/10/16 03:11:23;;;;;;;12.23;7.67;;;11.30;99.90;;;;;;5021421;28;20878;-83
2021/10/16 03:13:50;;;;;;;11.00;7.33;;;11.10;99.90;;;;;;5021481;28;20896;-83
2021/10/16 03:16:17;;;;;;;10.50;7.40;;;10.90;99.90;;;;;;5022469;28;20545;-83
2021/10/16 03:18:44;;;;;;;11.70;8.20;;;10.80;99.90;;;;;;5029542;28;20464;-83
2021/10/16 03:21:12;;;;;;;12.83;9.03;;;10.80;99.90;;;;;;5025790;28;20450;-83
2021/10/16 03:23:39;;;;;;;12.97;8.13;;;10.80;99.90;;;;;;5038323;23;20479;-78
2021/10/16 03:26:06;;;;;;;9.93;8.00;;;10.80;99.90;;;;;;5016421;28;21037;-77
2021/10/16 03:28:33;;;;;;;12.50;7.90;;;10.80;99.90;;;;;;5015639;28;20503;-77
2021/10/16 03:31:00;;;;;;;11.20;7.20;;;10.90;99.90;;;;;;5016087;28;21005;-78
2021/10/16 03:33:26;;;;;;;11.50;8.80;;;10.90;99.90;;;;;;5015887;28;20561;-77
2021/10/16 03:35:53;;;;;;;9.90;7.23;;;11.00;99.90;;;;;;5016646;28;20463;-77
2021/10/16 03:38:21;;;;;;;13.33;7.87;;;10.90;99.90;;;;;;5016046;28;20933;-77
2021/10/16 03:40:48;;;;;;;11.67;8.10;;;10.90;99.90;;;;;;5015566;28;20453;-77
2021/10/16 03:43:15;;;;;;;11.00;8.10;;;10.90;99.90;;;;;;5016303;28;20830;-79
2021/10/16 03:45:42;;;;;;;12.60;8.17;;;10.90;99.90;;;;;;5015567;28;20888;-77
2021/10/16 03:48:09;;;;;;;12.53;7.90;;;10.90;99.90;;;;;;5016469;28;20454;-77
2021/10/16 03:50:36;;;;;;;12.00;7.80;;;10.90;99.90;;;;;;5015468;28;21004;-77
2021/10/16 03:53:02;;;;;;;20.50;10.50;;;10.90;99.90;;;;;;5015427;28;20467;-77
2021/10/16 03:55:31;;;;;;;12.70;8.67;;;11.00;99.90;;;;;;5015302;28;20450;-77
2021/10/16 03:57:57;;;;;;;14.80;10.87;;;11.00;99.90;;;;;;5015416;28;20457;-77
2021/10/16 04:00:24;;;;;;;16.80;10.23;;;10.90;99.90;;;;;;5015296;28;20528;-77
2021/10/16 04:02:53;;;;;;;13.80;9.13;;;10.90;99.90;;;;;;5014762;28;21019;-77
2021/10/16 04:05:20;;;;;;;20.03;12.07;;;10.90;99.90;;;;;;5014809;28;20496;-77
2021/10/16 04:07:46;;;;;;;17.33;12.30;;;10.80;99.90;;;;;;5023582;28;20477;-77
2021/10/16 04:10:13;;;;;;;17.13;11.30;;;10.80;99.90;;;;;;5027098;28;20544;-76
2021/10/16 04:12:41;;;;;;;21.33;14.00;;;10.80;99.90;;;;;;5014724;28;20558;-76
2021/10/16 04:15:09;;;;;;;20.97;12.90;;;10.70;99.90;;;;;;5014738;28;20481;-77
2021/10/16 04:17:36;;;;;;;19.30;12.63;;;10.80;99.90;;;;;;5014910;28;20453;-77
2021/10/16 04:20:03;;;;;;;24.37;14.27;;;10.80;99.90;;;;;;5015099;28;20939;-77
2021/10/16 04:22:31;;;;;;;21.80;13.50;;;10.80;99.90;;;;;;5017547;28;20457;-77
2021/10/16 04:24:57;;;;;;;20.20;13.63;;;10.90;99.90;;;;;;5015155;28;20555;-77
2021/10/16 04:27:24;;;;;;;21.10;13.47;;;11.10;99.90;;;;;;5014848;28;20825;-77
2021/10/16 04:29:53;;;;;;;19.13;13.20;;;11.10;99.90;;;;;;5014676;28;20595;-77
2021/10/16 04:32:20;;;;;;;20.93;13.73;;;11.00;99.90;;;;;;5014263;28;20987;-77
2021/10/16 04:34:47;;;;;;;20.40;12.90;;;11.00;99.90;;;;;;5014114;28;20478;-76
2021/10/16 04:37:16;;;;;;;18.10;12.47;;;10.90;99.90;;;;;;5015011;28;20454;-77
2021/10/16 04:39:42;;;;;;;20.17;13.60;;;11.00;99.90;;;;;;5014317;28;20546;-77
2021/10/16 04:42:11;;;;;;;21.70;14.33;;;11.00;99.90;;;;;;5014151;28;20453;-76
2021/10/16 04:44:39;;;;;;;23.07;15.30;;;11.00;99.90;;;;;;5013878;28;20521;-77
2021/10/16 04:47:08;;;;;;;26.03;15.60;;;10.90;99.90;;;;;;5014834;28;20559;-77
2021/10/16 04:49:35;;;;;;;22.67;15.90;;;10.90;99.90;;;;;;5014829;28;20779;-77
2021/10/16 04:52:03;;;;;;;22.50;14.87;;;11.10;99.90;;;;;;5014362;28;20508;-77
2021/10/16 04:54:30;;;;;;;21.47;13.67;;;11.30;99.90;;;;;;5014850;28;20997;-77
2021/10/16 04:56:57;;;;;;;19.27;13.27;;;11.30;99.90;;;;;;5014921;28;20453;-77
2021/10/16 04:59:27;;;;;;;21.90;13.33;;;11.10;99.90;;;;;;5015273;28;20528;-77
2021/10/16 05:01:54;;;;;;;21.80;13.13;;;11.00;99.90;;;;;;5015410;28;20837;-77
2021/10/16 05:04:22;;;;;;;22.53;15.53;;;10.90;99.90;;;;;;5015502;28;20482;-77
2021/10/16 05:06:49;;;;;;;23.87;14.93;;;10.90;99.90;;;;;;5015086;28;20453;-77
2021/10/16 05:09:16;;;;;;;24.33;14.87;;;10.80;99.90;;;;;;5014860;28;21052;-77
2021/10/16 05:11:43;;;;;;;24.73;15.60;;;10.80;99.90;;;;;;5017432;28;20489;-77
2021/10/16 05:14:10;;;;;;;25.40;16.07;;;10.80;99.90;;;;;;5021188;28;20473;-77
2021/10/16 05:16:36;;;;;;;21.47;15.13;;;10.80;99.90;;;;;;5016819;28;20458;-77
2021/10/16 05:19:03;;;;;;;23.53;14.83;;;10.80;99.90;;;;;;5021204;28;20456;-77
2021/10/16 05:21:32;;;;;;;23.47;16.43;;;10.80;99.90;;;;;;5015159;28;20464;-77
2021/10/16 05:23:59;;;;;;;25.70;15.30;;;10.80;99.90;;;;;;5014161;28;20501;-77
2021/10/16 05:26:26;;;;;;;25.03;16.50;;;10.80;99.90;;;;;;5015071;28;20472;-77
2021/10/16 05:28:55;;;;;;;24.90;16.93;;;10.80;99.90;;;;;;5018084;28;20477;-77
2021/10/16 05:31:22;;;;;;;29.47;15.33;;;10.70;99.90;;;;;;5013575;28;20527;-77
2021/10/16 05:33:50;;;;;;;27.07;17.90;;;10.80;99.90;;;;;;5013533;28;20472;-77
2021/10/16 05:36:17;;;;;;;21.40;13.57;;;11.00;99.90;;;;;;5014831;28;20504;-77
2021/10/16 05:38:45;;;;;;;19.20;10.77;;;11.30;99.90;;;;;;5014602;28;20480;-77
2021/10/16 05:41:12;;;;;;;12.40;10.13;;;11.30;99.90;;;;;;5013688;28;20790;-76
2021/10/16 05:43:38;;;;;;;17.50;10.60;;;11.30;99.90;;;;;;5013709;28;20830;-77
2021/10/16 05:46:05;;;;;;;15.40;10.80;;;11.00;99.90;;;;;;5014311;28;20537;-77
2021/10/16 05:48:32;;;;;;;26.20;10.13;;;10.70;99.90;;;;;;5016052;28;20461;-77
2021/10/16 05:50:59;;;;;;;14.60;11.40;;;10.70;99.90;;;;;;5013949;28;20461;-77
2021/10/16 05:53:26;;;;;;;11.70;9.73;;;10.70;99.90;;;;;;5013943;28;20484;-77
2021/10/16 05:55:55;;;;;;;14.80;10.60;;;10.80;99.90;;;;;;5014214;28;20460;-77
2021/10/16 05:58:22;;;;;;;17.17;10.90;;;10.80;99.90;;;;;;5027064;28;20525;-76
2021/10/16 06:00:48;;;;;;;15.50;10.33;;;10.80;99.90;;;;;;5019393;28;20536;-77
2021/10/16 06:03:15;;;;;;;14.30;10.30;;;10.70;99.90;;;;;;5013760;28;20469;-77
2021/10/16 06:05:42;;;;;;;15.67;11.23;;;10.60;99.90;;;;;;5013369;28;20953;-77
2021/10/16 06:08:09;;;;;;;13.27;9.13;;;10.80;99.90;;;;;;5013900;28;20456;-76
2021/10/16 06:10:36;;;;;;;13.30;9.70;;;10.80;99.90;;;;;;5013431;28;20557;-77
2021/10/16 06:13:04;;;;;;;15.13;10.90;;;10.90;99.90;;;;;;5016326;28;20559;-77
2021/10/16 06:15:30;;;;;;;14.70;10.30;;;11.10;99.90;;;;;;5014657;28;20537;-77
2021/10/16 06:17:57;;;;;;;13.17;9.53;;;11.30;99.90;;;;;;5013633;28;20561;-77
2021/10/16 06:20:29;;;;;;;19.33;9.97;;;11.30;99.90;;;;;;5014093;28;20533;-77
2021/10/16 06:22:56;;;;;;;16.03;11.80;;;11.30;99.90;;;;;;5013550;28;20473;-77
2021/10/16 06:25:23;;;;;;;18.77;11.00;;;11.30;99.90;;;;;;5013014;28;20546;-77
2021/10/16 06:27:50;;;;;;;15.83;10.20;;;11.30;99.90;;;;;;5013507;28;20858;-77
2021/10/16 06:30:18;;;;;;;13.20;10.33;;;11.20;99.90;;;;;;5016810;28;20459;-78
2021/10/16 06:32:45;;;;;;;13.93;10.20;;;11.30;99.90;;;;;;5016773;28;20495;-78
2021/10/16 06:35:12;;;;;;;13.07;10.60;;;11.40;99.90;;;;;;5017200;28;20480;-77
2021/10/16 06:37:39;;;;;;;15.40;10.63;;;11.40;99.90;;;;;;5016666;28;20548;-77
2021/10/16 06:40:07;;;;;;;16.30;11.57;;;11.40;99.90;;;;;;5016826;28;20541;-79
2021/10/16 06:42:34;;;;;;;18.20;10.67;;;11.30;99.90;;;;;;5017311;28;20460;-77
2021/10/16 06:45:01;;;;;;;14.63;9.87;;;11.40;99.90;;;;;;5016650;28;20477;-77
2021/10/16 06:47:29;;;;;;;15.17;10.47;;;11.40;99.90;;;;;;5016173;28;20458;-77
2021/10/16 06:49:56;;;;;;;15.17;10.00;;;11.30;99.90;;;;;;5016518;28;20431;-77
2021/10/16 06:52:22;;;;;;;17.60;10.77;;;11.10;99.90;;;;;;5016795;28;20902;-76
2021/10/16 06:54:49;;;;;;;14.90;10.47;;;11.00;99.90;;;;;;5015977;28;20672;-76
2021/10/16 06:57:16;;;;;;;13.07;10.30;;;10.90;99.90;;;;;;5016265;28;20488;-77
2021/10/16 06:59:43;;;;;;;12.27;10.73;;;10.90;99.90;;;;;;5016290;28;20431;-77
2021/10/16 07:02:10;;;;;;;12.60;9.83;;;10.90;99.90;;;;;;5017272;28;20449;-77
2021/10/16 07:04:38;;;;;;;13.67;9.60;;;10.80;99.90;;;;;;5019352;28;20561;-78
2021/10/16 07:07:05;;;;;;;15.27;11.30;;;10.80;99.90;;;;;;5016800;28;20461;-77
2021/10/16 07:09:32;;;;;;;17.27;11.37;;;10.90;99.90;;;;;;5016140;28;20552;-77
2021/10/16 07:11:58;;;;;;;13.53;10.10;;;11.00;99.90;;;;;;5017443;28;20507;-77
2021/10/16 07:14:25;;;;;;;15.20;11.37;;;11.30;99.90;;;;;;5015753;28;20476;-77
2021/10/16 07:16:52;;;;;;;13.63;10.80;;;11.10;99.90;;;;;;5017933;28;20472;-77
2021/10/16 07:19:19;;;;;;;16.50;10.90;;;11.00;99.90;;;;;;5018130;28;20838;-77
2021/10/16 07:21:47;;;;;;;18.57;11.07;;;11.00;99.90;;;;;;5016395;28;20445;-77
2021/10/16 07:24:14;;;;;;;15.90;11.70;;;11.10;99.90;;;;;;5015531;28;20468;-77
2021/10/16 07:26:41;;;;;;;13.67;9.73;;;11.10;99.90;;;;;;5015524;28;20460;-77
2021/10/16 07:29:08;;;;;;;15.20;10.70;;;11.10;99.90;;;;;;5016111;28;20544;-78
2021/10/16 07:31:35;;;;;;;14.10;10.90;;;11.20;99.90;;;;;;5015946;28;20548;-77
2021/10/16 07:34:02;;;;;;;14.00;11.13;;;11.10;99.90;;;;;;5016095;28;20481;-76
2021/10/16 07:36:34;;;;;;;20.63;12.67;;;11.10;99.90;;;;;;5017232;28;20475;-78
2021/10/16 07:39:03;;;;;;;17.27;12.00;;;11.10;99.90;;;;;;5015847;28;20446;-78
2021/10/16 07:41:30;;;;;;;13.87;10.83;;;11.10;99.90;;;;;;5015979;28;20946;-77
2021/10/16 07:43:57;;;;;;;17.20;10.43;;;11.10;99.90;;;;;;5016633;28;20481;-77
2021/10/16 07:46:24;;;;;;;13.97;11.20;;;11.10;99.90;;;;;;5016886;28;20483;-77
2021/10/16 07:48:51;;;;;;;13.50;10.70;;;11.30;99.90;;;;;;5029273;28;20475;-77
2021/10/16 07:51:18;;;;;;;20.23;12.20;;;11.40;99.90;;;;;;5023532;28;20482;-77
2021/10/16 07:53:45;;;;;;;17.00;11.77;;;11.20;99.90;;;;;;5015960;28;20841;-77
2021/10/16 07:56:13;;;;;;;17.20;10.47;;;11.20;99.90;;;;;;5016278;28;20518;-77
2021/10/16 07:58:41;;;;;;;17.87;10.93;;;11.20;99.90;;;;;;5016591;28;20465;-77
2021/10/16 08:01:08;;;;;;;16.80;9.60;;;11.40;99.90;;;;;;5015057;28;20917;-76
2021/10/16 08:03:35;;;;;;;15.80;11.33;;;11.30;99.90;;;;;;5015221;28;20759;-77
2021/10/16 08:06:02;;;;;;;16.47;11.27;;;11.30;99.90;;;;;;5015240;28;20457;-77
2021/10/16 08:08:29;;;;;;;17.07;11.80;;;11.30;99.90;;;;;;5016039;28;20456;-77
2021/10/16 08:10:56;;;;;;;15.03;11.70;;;11.20;99.90;;;;;;5016137;28;20442;-77
2021/10/16 08:13:26;;;;;;;15.60;11.70;;;11.40;99.90;;;;;;5015645;28;20476;-77
2021/10/16 08:15:53;;;;;;;19.23;14.83;;;11.50;99.90;;;;;;5016059;28;20419;-77
2021/10/16 08:18:20;;;;;;;17.70;11.70;;;11.30;99.90;;;;;;5018667;28;20786;-78
2021/10/16 08:20:47;;;;;;;15.13;11.13;;;11.40;99.90;;;;;;5015745;28;20424;-76
2021/10/16 08:23:14;;;;;;;15.70;10.97;;;11.50;99.90;;;;;;5016702;28;20469;-78
2021/10/16 08:25:41;;;;;;;18.47;12.70;;;11.60;99.90;;;;;;5016108;28;20430;-77
2021/10/16 08:28:09;;;;;;;15.83;11.83;;;11.60;99.90;;;;;;5016328;28;20493;-78
2021/10/16 08:30:38;;;;;;;19.07;11.90;;;11.60;99.90;;;;;;5016355;28;20569;-78
2021/10/16 08:33:05;;;;;;;17.97;13.37;;;11.70;99.90;;;;;;5015838;28;20528;-78
2021/10/16 08:35:33;;;;;;;19.23;14.23;;;11.70;99.90;;;;;;5020211;28;20450;-78
2021/10/16 08:38:00;;;;;;;21.30;15.10;;;11.50;99.90;;;;;;5016859;28;20584;-77
2021/10/16 08:40:27;;;;;;;18.10;13.53;;;11.50;99.90;;;;;;5015634;28;20540;-78
2021/10/16 08:42:54;;;;;;;24.80;15.13;;;11.60;99.90;;;;;;5014548;28;20425;-77
2021/10/16 08:45:21;;;;;;;29.53;18.07;;;11.70;99.90;;;;;;5014748;28;20417;-77
2021/10/16 08:47:49;;;;;;;28.27;19.73;;;11.70;99.90;;;;;;5015426;28;20460;-77
2021/10/16 08:50:16;;;;;;;28.63;19.03;;;11.50;99.90;;;;;;5014671;28;20424;-77
2021/10/16 08:52:43;;;;;;;32.87;19.87;;;11.60;99.90;;;;;;5013691;28;20465;-77
2021/10/16 08:55:12;;;;;;;31.83;20.23;;;11.60;99.90;;;;;;5014602;28;20488;-77
2021/10/16 08:57:41;;;;;;;33.43;20.27;;;11.80;99.90;;;;;;5014302;28;20423;-77
2021/10/16 09:00:42;;;;;;;32.47;20.53;;;11.70;99.90;;;;;;5014005;28;20455;-77
2021/10/16 09:03:22;;;;;;;37.97;23.23;;;11.60;99.90;;;;;;5014608;28;20477;-77
2021/10/16 09:06:06;;;;;;;37.07;20.87;;;11.50;99.90;;;;;;5013924;28;20428;-77
2021/10/16 09:08:35;;;;;;;33.13;18.93;;;11.50;99.90;;;;;;5014183;28;20492;-77
2021/10/16 09:11:31;;;;;;;31.60;18.83;;;11.50;99.90;;;;;;5014042;28;20464;-78
2021/10/16 09:14:01;;;;;;;26.67;16.90;;;11.70;99.90;;;;;;4979963;28;20988;-77
2021/10/16 09:16:33;;;;;;;29.90;18.10;;;11.90;99.90;;;;;;5014516;28;20826;-77
2021/10/16 09:19:08;;;;;;;33.90;17.63;;;11.90;99.90;;;;;;5014267;28;20431;-77
2021/10/16 09:21:35;;;;;;;31.00;17.23;;;11.90;99.90;;;;;;5014581;28;20446;-77
2021/10/16 09:24:13;;;;;;;28.67;17.63;;;12.10;99.90;;;;;;5045156;23;21392;-86
2021/10/16 09:26:42;;;;;;;31.50;18.77;;;12.00;99.90;;;;;;5021754;28;20460;-84
2021/10/16 09:29:11;;;;;;;37.67;21.03;;;11.90;99.90;;;;;;5021705;28;20461;-83
2021/10/16 09:31:43;;;;;;;31.43;18.40;;;11.80;99.90;;;;;;5031813;28;20472;-83
2021/10/16 09:34:12;;;;;;;30.67;20.00;;;11.80;99.90;;;;;;5025592;28;20493;-84
2021/10/16 09:36:40;;;;;;;29.83;19.13;;;11.60;99.90;;;;;;5016649;28;20457;-85
2021/10/16 09:39:09;;;;;;;28.37;18.80;;;11.70;99.90;;;;;;5017452;28;20460;-85
2021/10/16 09:41:38;;;;;;;32.13;21.90;;;11.90;99.90;;;;;;5018152;28;20453;-85
2021/10/16 09:44:18;;;;;;;31.97;19.77;;;12.20;99.90;;;;;;5017272;28;20478;-85
2021/10/16 09:46:56;;;;;;;43.27;21.70;;;12.10;99.90;;;;;;5019458;28;20548;-85
2021/10/16 09:49:30;;;;;;;24.33;16.70;;;12.00;99.90;;;;;;5018282;28;20822;-85
2021/10/16 09:51:59;;;;;;;25.03;16.83;;;12.10;99.90;;;;;;5018953;28;20481;-85
2021/10/16 09:54:27;;;;;;;23.33;16.60;;;12.30;99.90;;;;;;5020987;28;20898;-85
2021/10/16 09:56:55;;;;;;;25.07;18.33;;;12.30;99.90;;;;;;5021481;28;20429;-85
2021/10/16 09:59:25;;;;;;;26.47;18.00;;;12.30;99.90;;;;;;5020697;28;20464;-85
2021/10/16 10:01:53;;;;;;;25.33;16.33;;;12.30;99.90;;;;;;5020934;28;20713;-85
2021/10/16 10:04:23;;;;;;;24.40;16.30;;;12.20;99.90;;;;;;5020796;28;20509;-85
2021/10/16 10:06:51;;;;;;;30.03;17.77;;;12.20;99.90;;;;;;5020409;28;20934;-85
2021/10/16 10:09:18;;;;;;;29.93;18.67;;;12.40;99.90;;;;;;5020463;28;20979;-85
2021/10/16 10:11:48;;;;;;;29.73;18.80;;;12.30;99.90;;;;;;5020522;28;20447;-85
2021/10/16 10:14:18;;;;;;;26.20;19.60;;;12.30;99.90;;;;;;5024109;28;20543;-85
2021/10/16 10:16:46;;;;;;;25.13;18.63;;;12.40;99.90;;;;;;5032999;28;20447;-85
2021/10/16 10:19:13;;;;;;;28.43;20.70;;;12.40;99.90;;;;;;5032926;28;20440;-85
2021/10/16 10:21:40;;;;;;;28.63;20.60;;;12.40;99.90;;;;;;5033246;28;20510;-85
2021/10/16 10:24:11;;;;;;;32.10;20.83;;;12.40;99.90;;;;;;5033123;28;20482;-85
2021/10/16 10:26:39;;;;;;;29.00;18.63;;;12.50;99.90;;;;;;5030834;28;20424;-85
2021/10/16 10:29:08;;;;;;;34.17;21.20;;;12.70;99.90;;;;;;5031086;28;20409;-85
2021/10/16 10:31:54;;;;;;;31.73;20.30;;;12.70;99.90;;;;;;5025458;28;20506;-85
2021/10/16 10:34:24;;;;;;;27.73;19.47;;;12.90;99.90;;;;;;5021067;28;20547;-85
2021/10/16 10:36:53;;;;;;;29.57;21.90;;;12.90;99.90;;;;;;5020774;28;20510;-85
2021/10/16 10:39:43;;;;;;;27.20;19.03;;;12.80;99.90;;;;;;5020781;28;20428;-85
2021/10/16 10:42:42;;;;;;;35.70;22.03;;;13.00;99.90;;;;;;5015671;28;20490;-85
2021/10/16 10:45:32;;;;;;;33.40;22.33;;;13.00;99.90;;;;;;4987144;28;20524;-85
2021/10/16 10:48:02;;;;;;;37.27;24.93;;;13.20;99.90;;;;;;5019788;28;20873;-85
2021/10/16 10:50:59;;;;;;;31.90;23.03;;;13.10;99.90;;;;;;5020636;28;20429;-85
2021/10/16 10:53:41;;;;;;;39.90;25.50;;;12.90;99.90;;;;;;4986460;28;20456;-86
2021/10/16 10:56:14;;;;;;;39.53;26.37;;;13.20;99.90;;;;;;5019205;28;20454;-85
2021/10/16 10:59:07;;;;;;;31.23;23.77;;;13.30;99.90;;;;;;5019242;28;20413;-86
2021/10/16 11:01:59;;;;;;;31.53;23.33;;;13.40;99.90;;;;;;5019567;28;20870;-85
2021/10/16 11:04:34;;;;;;;33.90;22.80;;;13.60;99.90;;;;;;5022403;28;20451;-85
2021/10/16 11:07:03;;;;;;;29.40;20.70;;;13.70;99.90;;;;;;5021202;28;20459;-84
2021/10/16 11:09:30;;;;;;;27.27;19.50;;;13.70;99.90;;;;;;5021205;28;20437;-85
2021/10/16 11:11:59;;;;;;;37.87;21.80;;;13.80;99.90;;;;;;5021364;28;20540;-85
2021/10/16 11:14:30;;;;;;;29.97;20.43;;;13.80;99.90;;;;;;5021143;28;20472;-85
2021/10/16 11:16:59;;;;;;;27.53;19.27;;;13.70;99.90;;;;;;5028314;28;20496;-85
2021/10/16 11:19:26;;;;;;;28.63;21.67;;;13.80;99.90;;;;;;5025462;28;20465;-85
2021/10/16 11:21:53;;;;;;;26.37;18.83;;;13.60;99.90;;;;;;5023097;28;20515;-85
2021/10/16 11:24:21;;;;;;;26.07;20.13;;;13.70;99.90;;;;;;5022798;28;20454;-85
2021/10/16 11:26:53;;;;;;;24.10;18.37;;;13.80;99.90;;;;;;5023149;28;20444;-85
2021/10/16 11:29:31;;;;;;;27.03;19.30;;;14.00;99.90;;;;;;5022849;28;20481;-85
2021/10/16 11:32:15;;;;;;;27.27;20.57;;;14.10;99.90;;;;;;5022791;28;20450;-85
2021/10/16 11:34:58;;;;;;;28.63;19.30;;;13.90;99.90;;;;;;5028989;28;21042;-85
2021/10/16 11:37:37;;;;;;;25.73;18.67;;;14.00;99.90;;;;;;5032173;28;20473;-85
2021/10/16 11:40:06;;;;;;;25.47;18.90;;;14.10;99.90;;;;;;5024661;28;20421;-85
2021/10/16 11:42:33;;;;;;;22.17;17.63;;;14.10;99.90;;;;;;5023226;28;20429;-85
2021/10/16 11:45:01;;;;;;;21.80;17.93;;;14.00;99.90;;;;;;5022150;28;20462;-85
2021/10/16 11:47:28;;;;;;;22.40;18.73;;;13.90;99.90;;;;;;5022484;28;20481;-86
2021/10/16 11:49:55;;;;;;;23.40;19.13;;;13.80;99.90;;;;;;5022065;28;20499;-85
2021/10/16 11:52:23;;;;;;;28.87;20.23;;;13.80;99.90;;;;;;5022181;28;20553;-85
2021/10/16 11:55:09;;;;;;;25.00;19.53;;;13.70;99.90;;;;;;5021628;28;20914;-86
2021/10/16 11:57:36;;;;;;;24.13;18.63;;;13.70;99.90;;;;;;5022111;28;20417;-86
2021/10/16 12:00:25;;;;;;;21.83;16.83;;;13.90;99.90;;;;;;5022741;28;21026;-85
2021/10/16 12:02:52;;;;;;;22.57;17.80;;;14.00;99.90;;;;;;5025858;28;20436;-86
2021/10/16 12:05:20;;;;;;;23.53;18.80;;;14.00;99.90;;;;;;5027899;28;20492;-85
2021/10/16 12:07:48;;;;;;;22.57;17.80;;;13.90;99.90;;;;;;5029228;28;20450;-85
2021/10/16 12:10:28;;;;;;;22.97;18.17;;;14.00;99.90;;;;;;5023353;28;20516;-85
2021/10/16 12:13:00;;;;;;;23.30;18.37;;;14.00;99.90;;;;;;5026343;28;20636;-85
2021/10/16 12:15:34;;;;;;;20.30;16.33;;;13.90;99.90;;;;;;5019123;28;20482;-85
2021/10/16 12:18:04;;;;;;;21.03;18.27;;;14.00;99.90;;;;;;5021619;28;20451;-85
2021/10/16 12:20:45;;;;;;;21.57;17.03;;;14.00;99.90;;;;;;5024750;28;20457;-86
2021/10/16 12:23:16;;;;;;;25.07;18.63;;;14.00;99.90;;;;;;5021772;28;20478;-84
2021/10/16 12:25:45;;;;;;;20.90;16.70;;;14.10;99.90;;;;;;5021528;28;20988;-86
2021/10/16 12:28:12;;;;;;;19.80;16.37;;;14.30;99.90;;;;;;5020951;28;20465;-87
2021/10/16 12:31:05;;;;;;;18.57;15.07;;;14.40;99.90;;;;;;5021870;28;20435;-86
2021/10/16 12:33:32;;;;;;;21.60;16.70;;;14.40;99.90;;;;;;5021334;28;20524;-86
2021/10/16 12:36:01;;;;;;;22.53;16.50;;;14.30;99.90;;;;;;5020944;28;20613;-86
2021/10/16 12:38:45;;;;;;;20.13;16.43;;;14.20;99.90;;;;;;5020961;28;20458;-87
2021/10/16 12:41:25;;;;;;;20.03;16.60;;;14.20;99.90;;;;;;5021402;28;20481;-85